sensor_id;sensor_type;location;lat;lon;timestamp;temperature;humidity
21734;DHT22;11029;47.820;10.534;2022-10-22T00:01:13;12.40;89.30
21734;DHT22;11029;47.820;10.534;2022-10-22T00:03:40;12.50;89.60
21734;DHT22;11029;47.820;10.534;2022-10-22T00:06:06;12.50;89.60
21734;DHT22;11029;47.820;10.534;2022-10-22T00:08:33;12.50;89.50
21734;DHT22;11029;47.820;10.534;2022-10-22T00:11:06;12.50;89.30
21734;DHT22;11029;47.820;10.534;2022-10-22T00:13:33;12.50;89.40
21734;DHT22;11029;47.820;10.534;2022-10-22T00:15:59;12.60;89.30
21734;DHT22;11029;47.820;10.534;2022-10-22T00:18:26;12.60;89.30
21734;DHT22;11029;47.820;10.534;2022-10-22T00:20:53;12.70;88.90
21734;DHT22;11029;47.820;10.534;2022-10-22T00:23:20;12.70;88.60
21734;DHT22;11029;47.820;10.534;2022-10-22T00:25:46;12.70;88.60
21734;DHT22;11029;47.820;10.534;2022-10-22T00:28:13;12.70;88.60
21734;DHT22;11029;47.820;10.534;2022-10-22T00:30:40;12.80;88.30
21734;DHT22;11029;47.820;10.534;2022-10-22T00:33:07;12.80;88.10
21734;DHT22;11029;47.820;10.534;2022-10-22T00:35:33;12.80;88.10
21734;DHT22;11029;47.820;10.534;2022-10-22T00:38:00;12.80;87.60
21734;DHT22;11029;47.820;10.534;2022-10-22T00:40:27;12.80;87.60
21734;DHT22;11029;47.820;10.534;2022-10-22T00:42:53;12.70;87.50
21734;DHT22;11029;47.820;10.534;2022-10-22T00:45:22;12.60;88.10
21734;DHT22;11029;47.820;10.534;2022-10-22T00:48:03;12.50;89.20
21734;DHT22;11029;47.820;10.534;2022-10-22T00:50:35;12.50;89.30
21734;DHT22;11029;47.820;10.534;2022-10-22T00:53:03;12.50;89.30
21734;DHT22;11029;47.820;10.534;2022-10-22T00:55:32;12.60;89.00
21734;DHT22;11029;47.820;10.534;2022-10-22T00:57:58;12.50;88.50
21734;DHT22;11029;47.820;10.534;2022-10-22T01:00:26;12.50;88.80
21734;DHT22;11029;47.820;10.534;2022-10-22T01:02:53;12.50;89.10
21734;DHT22;11029;47.820;10.534;2022-10-22T01:05:20;12.50;89.10
21734;DHT22;11029;47.820;10.534;2022-10-22T01:07:49;12.40;89.30
21734;DHT22;11029;47.820;10.534;2022-10-22T01:10:23;12.40;89.60
21734;DHT22;11029;47.820;10.534;2022-10-22T01:12:55;12.40;90.20
21734;DHT22;11029;47.820;10.534;2022-10-22T01:15:24;12.40;89.70
21734;DHT22;11029;47.820;10.534;2022-10-22T01:17:58;12.40;89.80
21734;DHT22;11029;47.820;10.534;2022-10-22T01:23:11;12.40;90.10
21734;DHT22;11029;47.820;10.534;2022-10-22T01:31:01;11.90;83.20
21734;DHT22;11029;47.820;10.534;2022-10-22T01:33:29;11.60;83.00
21734;DHT22;11029;47.820;10.534;2022-10-22T01:35:56;11.30;83.10
21734;DHT22;11029;47.820;10.534;2022-10-22T01:38:23;11.10;83.80
21734;DHT22;11029;47.820;10.534;2022-10-22T01:40:50;11.00;85.40
21734;DHT22;11029;47.820;10.534;2022-10-22T01:43:17;10.90;85.20
21734;DHT22;11029;47.820;10.534;2022-10-22T01:45:45;10.80;85.30
21734;DHT22;11029;47.820;10.534;2022-10-22T01:53:51;10.70;85.90
21734;DHT22;11029;47.820;10.534;2022-10-22T01:59:13;10.80;86.20
21734;DHT22;11029;47.820;10.534;2022-10-22T02:07:24;10.70;87.30
21734;DHT22;11029;47.820;10.534;2022-10-22T02:09:52;10.70;87.50
21734;DHT22;11029;47.820;10.534;2022-10-22T02:12:20;10.80;87.70
21734;DHT22;11029;47.820;10.534;2022-10-22T02:14:48;10.70;88.10
21734;DHT22;11029;47.820;10.534;2022-10-22T02:17:17;10.80;88.30
21734;DHT22;11029;47.820;10.534;2022-10-22T02:19:55;10.80;88.80
21734;DHT22;11029;47.820;10.534;2022-10-22T02:22:22;10.80;88.00
21734;DHT22;11029;47.820;10.534;2022-10-22T02:24:49;10.80;88.30
21734;DHT22;11029;47.820;10.534;2022-10-22T02:27:20;10.90;87.70
21734;DHT22;11029;47.820;10.534;2022-10-22T02:32:26;10.80;87.40
21734;DHT22;11029;47.820;10.534;2022-10-22T02:34:55;10.80;87.80
21734;DHT22;11029;47.820;10.534;2022-10-22T02:37:22;10.90;87.30
21734;DHT22;11029;47.820;10.534;2022-10-22T02:39:49;10.80;87.50
21734;DHT22;11029;47.820;10.534;2022-10-22T02:42:16;10.70;88.40
21734;DHT22;11029;47.820;10.534;2022-10-22T02:44:43;10.80;88.30
21734;DHT22;11029;47.820;10.534;2022-10-22T02:47:10;10.90;88.30
21734;DHT22;11029;47.820;10.534;2022-10-22T02:49:36;10.90;87.10
21734;DHT22;11029;47.820;10.534;2022-10-22T02:52:03;10.80;87.50
21734;DHT22;11029;47.820;10.534;2022-10-22T02:54:30;10.90;87.70
21734;DHT22;11029;47.820;10.534;2022-10-22T02:56:57;10.90;87.10
21734;DHT22;11029;47.820;10.534;2022-10-22T02:59:23;10.90;87.60
21734;DHT22;11029;47.820;10.534;2022-10-22T03:01:50;10.90;87.70
21734;DHT22;11029;47.820;10.534;2022-10-22T03:04:16;11.00;87.60
21734;DHT22;11029;47.820;10.534;2022-10-22T03:06:43;11.00;87.40
21734;DHT22;11029;47.820;10.534;2022-10-22T03:09:10;11.00;87.30
21734;DHT22;11029;47.820;10.534;2022-10-22T03:11:36;11.10;86.50
21734;DHT22;11029;47.820;10.534;2022-10-22T03:14:03;11.00;86.70
21734;DHT22;11029;47.820;10.534;2022-10-22T03:16:30;11.00;86.40
21734;DHT22;11029;47.820;10.534;2022-10-22T03:18:57;10.80;87.30
21734;DHT22;11029;47.820;10.534;2022-10-22T03:23:50;10.90;87.20
21734;DHT22;11029;47.820;10.534;2022-10-22T03:26:17;10.90;87.10
21734;DHT22;11029;47.820;10.534;2022-10-22T03:28:44;10.90;87.40
21734;DHT22;11029;47.820;10.534;2022-10-22T03:31:12;11.00;87.10
21734;DHT22;11029;47.820;10.534;2022-10-22T03:33:38;11.00;87.30
21734;DHT22;11029;47.820;10.534;2022-10-22T03:36:05;11.00;85.90
21734;DHT22;11029;47.820;10.534;2022-10-22T03:38:34;10.90;86.70
21734;DHT22;11029;47.820;10.534;2022-10-22T03:41:01;10.90;87.20
21734;DHT22;11029;47.820;10.534;2022-10-22T03:43:27;10.90;87.00
21734;DHT22;11029;47.820;10.534;2022-10-22T03:45:54;10.80;87.60
21734;DHT22;11029;47.820;10.534;2022-10-22T03:48:21;10.90;87.10
21734;DHT22;11029;47.820;10.534;2022-10-22T03:50:48;10.90;87.50
21734;DHT22;11029;47.820;10.534;2022-10-22T03:53:14;10.90;86.30
21734;DHT22;11029;47.820;10.534;2022-10-22T03:55:41;10.80;86.30
21734;DHT22;11029;47.820;10.534;2022-10-22T03:58:08;10.80;86.80
21734;DHT22;11029;47.820;10.534;2022-10-22T04:00:34;10.80;86.40
21734;DHT22;11029;47.820;10.534;2022-10-22T04:03:01;10.80;87.20
21734;DHT22;11029;47.820;10.534;2022-10-22T04:05:28;10.80;86.60
21734;DHT22;11029;47.820;10.534;2022-10-22T04:07:54;10.70;86.70
21734;DHT22;11029;47.820;10.534;2022-10-22T04:10:21;10.70;86.80
21734;DHT22;11029;47.820;10.534;2022-10-22T04:12:48;10.60;87.00
21734;DHT22;11029;47.820;10.534;2022-10-22T04:15:15;10.60;86.70
21734;DHT22;11029;47.820;10.534;2022-10-22T04:17:42;10.50;87.10
21734;DHT22;11029;47.820;10.534;2022-10-22T04:20:09;10.50;87.00
21734;DHT22;11029;47.820;10.534;2022-10-22T04:22:36;10.60;87.20
21734;DHT22;11029;47.820;10.534;2022-10-22T04:25:03;10.60;87.30
21734;DHT22;11029;47.820;10.534;2022-10-22T04:27:30;10.70;86.90
21734;DHT22;11029;47.820;10.534;2022-10-22T04:29:57;10.80;86.90
21734;DHT22;11029;47.820;10.534;2022-10-22T04:32:24;10.80;86.60
21734;DHT22;11029;47.820;10.534;2022-10-22T04:34:51;10.90;86.50
21734;DHT22;11029;47.820;10.534;2022-10-22T04:37:17;10.80;86.10
21734;DHT22;11029;47.820;10.534;2022-10-22T04:39:44;10.70;87.00
21734;DHT22;11029;47.820;10.534;2022-10-22T04:42:11;10.70;87.50
21734;DHT22;11029;47.820;10.534;2022-10-22T04:44:38;10.80;87.80
21734;DHT22;11029;47.820;10.534;2022-10-22T04:47:04;10.80;86.80
21734;DHT22;11029;47.820;10.534;2022-10-22T04:49:31;10.80;86.90
21734;DHT22;11029;47.820;10.534;2022-10-22T04:51:57;10.90;87.20
21734;DHT22;11029;47.820;10.534;2022-10-22T04:54:24;10.90;87.00
21734;DHT22;11029;47.820;10.534;2022-10-22T04:56:57;10.90;87.00
21734;DHT22;11029;47.820;10.534;2022-10-22T04:59:24;10.80;87.00
21734;DHT22;11029;47.820;10.534;2022-10-22T05:01:51;10.80;87.30
21734;DHT22;11029;47.820;10.534;2022-10-22T05:04:17;10.80;86.90
21734;DHT22;11029;47.820;10.534;2022-10-22T05:06:45;10.70;87.70
21734;DHT22;11029;47.820;10.534;2022-10-22T05:09:13;10.70;88.30
21734;DHT22;11029;47.820;10.534;2022-10-22T05:11:41;10.70;87.90
21734;DHT22;11029;47.820;10.534;2022-10-22T05:14:11;10.70;87.70
21734;DHT22;11029;47.820;10.534;2022-10-22T05:16:37;10.70;87.40
21734;DHT22;11029;47.820;10.534;2022-10-22T05:19:05;10.70;86.80
21734;DHT22;11029;47.820;10.534;2022-10-22T05:21:32;10.60;87.10
21734;DHT22;11029;47.820;10.534;2022-10-22T05:23:59;10.60;87.30
21734;DHT22;11029;47.820;10.534;2022-10-22T05:26:27;10.60;87.00
21734;DHT22;11029;47.820;10.534;2022-10-22T05:28:53;10.60;87.20
21734;DHT22;11029;47.820;10.534;2022-10-22T05:31:20;10.60;87.60
21734;DHT22;11029;47.820;10.534;2022-10-22T05:33:47;10.60;87.90
21734;DHT22;11029;47.820;10.534;2022-10-22T05:36:18;10.50;88.30
21734;DHT22;11029;47.820;10.534;2022-10-22T05:38:45;10.60;88.00
21734;DHT22;11029;47.820;10.534;2022-10-22T05:41:12;10.60;88.20
21734;DHT22;11029;47.820;10.534;2022-10-22T05:43:39;10.60;88.00
21734;DHT22;11029;47.820;10.534;2022-10-22T05:46:07;10.70;87.90
21734;DHT22;11029;47.820;10.534;2022-10-22T05:48:33;10.70;88.00
21734;DHT22;11029;47.820;10.534;2022-10-22T05:51:07;10.70;88.00
21734;DHT22;11029;47.820;10.534;2022-10-22T05:53:35;10.60;88.80
21734;DHT22;11029;47.820;10.534;2022-10-22T05:56:03;10.60;88.90
21734;DHT22;11029;47.820;10.534;2022-10-22T05:58:30;10.60;88.60
21734;DHT22;11029;47.820;10.534;2022-10-22T06:01:01;10.70;88.80
21734;DHT22;11029;47.820;10.534;2022-10-22T06:03:28;10.70;88.40
21734;DHT22;11029;47.820;10.534;2022-10-22T06:05:55;10.70;88.40
21734;DHT22;11029;47.820;10.534;2022-10-22T06:08:21;10.70;88.10
21734;DHT22;11029;47.820;10.534;2022-10-22T06:10:48;10.80;88.40
21734;DHT22;11029;47.820;10.534;2022-10-22T06:13:15;10.80;88.40
21734;DHT22;11029;47.820;10.534;2022-10-22T06:15:42;10.80;88.40
21734;DHT22;11029;47.820;10.534;2022-10-22T06:18:08;10.90;87.80
21734;DHT22;11029;47.820;10.534;2022-10-22T06:20:36;10.90;87.80
21734;DHT22;11029;47.820;10.534;2022-10-22T06:23:03;10.90;87.50
21734;DHT22;11029;47.820;10.534;2022-10-22T06:25:29;10.80;87.70
21734;DHT22;11029;47.820;10.534;2022-10-22T06:27:56;10.80;88.00
21734;DHT22;11029;47.820;10.534;2022-10-22T06:30:23;10.60;88.90
21734;DHT22;11029;47.820;10.534;2022-10-22T06:32:49;10.50;89.40
21734;DHT22;11029;47.820;10.534;2022-10-22T06:35:16;10.50;89.70
21734;DHT22;11029;47.820;10.534;2022-10-22T06:37:42;10.50;90.00
21734;DHT22;11029;47.820;10.534;2022-10-22T06:40:09;10.50;90.10
21734;DHT22;11029;47.820;10.534;2022-10-22T06:42:36;10.50;90.10
21734;DHT22;11029;47.820;10.534;2022-10-22T06:45:03;10.50;90.30
21734;DHT22;11029;47.820;10.534;2022-10-22T06:47:30;10.70;89.90
21734;DHT22;11029;47.820;10.534;2022-10-22T06:49:58;10.70;89.70
21734;DHT22;11029;47.820;10.534;2022-10-22T06:52:25;10.70;89.70
21734;DHT22;11029;47.820;10.534;2022-10-22T06:54:52;10.80;89.60
21734;DHT22;11029;47.820;10.534;2022-10-22T06:57:18;10.90;89.30
21734;DHT22;11029;47.820;10.534;2022-10-22T06:59:45;10.90;89.00
21734;DHT22;11029;47.820;10.534;2022-10-22T07:02:12;11.00;89.20
21734;DHT22;11029;47.820;10.534;2022-10-22T07:04:38;11.10;88.40
21734;DHT22;11029;47.820;10.534;2022-10-22T07:07:05;11.10;88.70
21734;DHT22;11029;47.820;10.534;2022-10-22T07:09:32;11.20;88.50
21734;DHT22;11029;47.820;10.534;2022-10-22T07:11:59;11.30;88.30
21734;DHT22;11029;47.820;10.534;2022-10-22T07:14:25;11.30;88.00
21734;DHT22;11029;47.820;10.534;2022-10-22T07:16:52;11.30;87.70
21734;DHT22;11029;47.820;10.534;2022-10-22T07:19:18;11.30;87.20
21734;DHT22;11029;47.820;10.534;2022-10-22T07:21:45;11.30;87.00
21734;DHT22;11029;47.820;10.534;2022-10-22T07:24:12;11.30;86.30
21734;DHT22;11029;47.820;10.534;2022-10-22T07:26:38;11.30;86.40
21734;DHT22;11029;47.820;10.534;2022-10-22T07:29:05;11.30;86.00
21734;DHT22;11029;47.820;10.534;2022-10-22T07:31:32;11.30;85.80
21734;DHT22;11029;47.820;10.534;2022-10-22T07:33:58;11.20;85.90
21734;DHT22;11029;47.820;10.534;2022-10-22T07:36:25;11.30;85.90
21734;DHT22;11029;47.820;10.534;2022-10-22T07:38:53;11.30;85.60
21734;DHT22;11029;47.820;10.534;2022-10-22T07:41:20;11.30;85.40
21734;DHT22;11029;47.820;10.534;2022-10-22T07:43:47;11.30;85.70
21734;DHT22;11029;47.820;10.534;2022-10-22T07:46:14;11.30;86.20
21734;DHT22;11029;47.820;10.534;2022-10-22T07:48:40;11.40;85.80
21734;DHT22;11029;47.820;10.534;2022-10-22T07:51:07;11.40;86.10
21734;DHT22;11029;47.820;10.534;2022-10-22T07:53:34;11.30;86.30
21734;DHT22;11029;47.820;10.534;2022-10-22T07:56:01;11.40;86.40
21734;DHT22;11029;47.820;10.534;2022-10-22T07:58:28;11.40;86.30
21734;DHT22;11029;47.820;10.534;2022-10-22T08:00:55;11.40;86.30
21734;DHT22;11029;47.820;10.534;2022-10-22T08:03:22;11.50;86.30
21734;DHT22;11029;47.820;10.534;2022-10-22T08:05:50;11.50;86.20
21734;DHT22;11029;47.820;10.534;2022-10-22T08:08:16;11.60;86.10
21734;DHT22;11029;47.820;10.534;2022-10-22T08:10:43;11.70;86.00
21734;DHT22;11029;47.820;10.534;2022-10-22T08:13:11;11.80;85.60
21734;DHT22;11029;47.820;10.534;2022-10-22T08:15:38;11.90;85.30
21734;DHT22;11029;47.820;10.534;2022-10-22T08:18:04;11.90;84.80
21734;DHT22;11029;47.820;10.534;2022-10-22T08:20:31;11.90;85.00
21734;DHT22;11029;47.820;10.534;2022-10-22T08:22:58;11.90;85.60
21734;DHT22;11029;47.820;10.534;2022-10-22T08:25:25;12.00;85.70
21734;DHT22;11029;47.820;10.534;2022-10-22T08:27:51;12.00;84.60
21734;DHT22;11029;47.820;10.534;2022-10-22T08:30:18;12.00;84.90
21734;DHT22;11029;47.820;10.534;2022-10-22T08:32:45;12.00;85.00
21734;DHT22;11029;47.820;10.534;2022-10-22T08:35:13;12.00;85.00
21734;DHT22;11029;47.820;10.534;2022-10-22T08:37:43;12.10;85.20
21734;DHT22;11029;47.820;10.534;2022-10-22T08:40:11;12.10;85.10
21734;DHT22;11029;47.820;10.534;2022-10-22T08:45:24;12.20;83.90
21734;DHT22;11029;47.820;10.534;2022-10-22T08:51:08;12.30;83.90
21734;DHT22;11029;47.820;10.534;2022-10-22T08:53:20;12.30;84.10
21734;DHT22;11029;47.820;10.534;2022-10-22T08:55:47;12.30;83.90
21734;DHT22;11029;47.820;10.534;2022-10-22T08:58:28;12.30;83.80
21734;DHT22;11029;47.820;10.534;2022-10-22T09:00:59;12.30;83.70
21734;DHT22;11029;47.820;10.534;2022-10-22T09:03:28;12.40;83.50
21734;DHT22;11029;47.820;10.534;2022-10-22T09:06:00;12.40;83.60
21734;DHT22;11029;47.820;10.534;2022-10-22T09:08:28;12.50;83.60
21734;DHT22;11029;47.820;10.534;2022-10-22T09:10:57;12.60;84.00
21734;DHT22;11029;47.820;10.534;2022-10-22T09:13:27;12.70;83.10
21734;DHT22;11029;47.820;10.534;2022-10-22T09:15:56;12.70;83.00
21734;DHT22;11029;47.820;10.534;2022-10-22T09:18:38;12.70;81.70
21734;DHT22;11029;47.820;10.534;2022-10-22T09:21:31;12.70;82.50
21734;DHT22;11029;47.820;10.534;2022-10-22T09:26:20;12.90;82.40
21734;DHT22;11029;47.820;10.534;2022-10-22T09:28:50;13.00;82.40
21734;DHT22;11029;47.820;10.534;2022-10-22T09:31:17;13.10;82.20
21734;DHT22;11029;47.820;10.534;2022-10-22T09:33:44;13.20;80.50
21734;DHT22;11029;47.820;10.534;2022-10-22T09:36:15;13.20;79.20
21734;DHT22;11029;47.820;10.534;2022-10-22T09:38:49;13.20;79.50
21734;DHT22;11029;47.820;10.534;2022-10-22T09:41:16;13.30;79.00
21734;DHT22;11029;47.820;10.534;2022-10-22T09:43:47;13.40;80.00
21734;DHT22;11029;47.820;10.534;2022-10-22T09:46:18;13.40;78.70
21734;DHT22;11029;47.820;10.534;2022-10-22T09:51:21;13.40;79.90
21734;DHT22;11029;47.820;10.534;2022-10-22T09:53:55;13.60;80.30
21734;DHT22;11029;47.820;10.534;2022-10-22T09:56:26;13.70;78.20
21734;DHT22;11029;47.820;10.534;2022-10-22T09:58:56;13.80;78.80
21734;DHT22;11029;47.820;10.534;2022-10-22T10:01:25;13.80;76.30
21734;DHT22;11029;47.820;10.534;2022-10-22T10:03:52;13.80;76.80
21734;DHT22;11029;47.820;10.534;2022-10-22T10:06:19;14.00;77.20
21734;DHT22;11029;47.820;10.534;2022-10-22T10:08:47;14.10;75.90
21734;DHT22;11029;47.820;10.534;2022-10-22T10:11:35;14.00;76.60
21734;DHT22;11029;47.820;10.534;2022-10-22T10:14:07;14.10;76.60
21734;DHT22;11029;47.820;10.534;2022-10-22T10:16:38;13.90;75.50
21734;DHT22;11029;47.820;10.534;2022-10-22T10:19:10;14.00;74.60
21734;DHT22;11029;47.820;10.534;2022-10-22T10:21:57;13.90;73.70
21734;DHT22;11029;47.820;10.534;2022-10-22T10:27:30;14.00;73.30
21734;DHT22;11029;47.820;10.534;2022-10-22T10:30:13;14.10;73.70
21734;DHT22;11029;47.820;10.534;2022-10-22T10:32:51;14.30;72.50
21734;DHT22;11029;47.820;10.534;2022-10-22T10:35:22;14.40;72.10
21734;DHT22;11029;47.820;10.534;2022-10-22T10:37:55;14.50;72.90
21734;DHT22;11029;47.820;10.534;2022-10-22T10:40:27;14.60;72.00
21734;DHT22;11029;47.820;10.534;2022-10-22T10:43:03;14.60;70.30
21734;DHT22;11029;47.820;10.534;2022-10-22T10:45:53;14.70;69.80
21734;DHT22;11029;47.820;10.534;2022-10-22T10:48:34;14.80;69.60
21734;DHT22;11029;47.820;10.534;2022-10-22T10:53:54;15.10;68.30
21734;DHT22;11029;47.820;10.534;2022-10-22T10:56:36;15.20;68.20
21734;DHT22;11029;47.820;10.534;2022-10-22T11:06:43;14.90;67.60
21734;DHT22;11029;47.820;10.534;2022-10-22T11:09:22;14.90;68.10
21734;DHT22;11029;47.820;10.534;2022-10-22T11:11:51;15.00;68.70
21734;DHT22;11029;47.820;10.534;2022-10-22T11:14:25;15.20;68.80
21734;DHT22;11029;47.820;10.534;2022-10-22T11:16:58;15.50;69.30
21734;DHT22;11029;47.820;10.534;2022-10-22T11:19:29;15.80;66.30
21734;DHT22;11029;47.820;10.534;2022-10-22T11:22:19;15.70;66.20
21734;DHT22;11029;47.820;10.534;2022-10-22T11:29:46;15.80;63.80
21734;DHT22;11029;47.820;10.534;2022-10-22T11:32:18;15.60;65.80
21734;DHT22;11029;47.820;10.534;2022-10-22T11:34:52;15.60;65.40
21734;DHT22;11029;47.820;10.534;2022-10-22T11:37:20;15.50;65.70
21734;DHT22;11029;47.820;10.534;2022-10-22T11:39:51;15.40;66.30
21734;DHT22;11029;47.820;10.534;2022-10-22T11:42:29;15.50;65.50
21734;DHT22;11029;47.820;10.534;2022-10-22T11:45:40;15.70;66.50
21734;DHT22;11029;47.820;10.534;2022-10-22T11:58:28;16.30;65.40
21734;DHT22;11029;47.820;10.534;2022-10-22T12:03:38;16.50;62.70
21734;DHT22;11029;47.820;10.534;2022-10-22T12:08:44;16.50;65.70
21734;DHT22;11029;47.820;10.534;2022-10-22T12:16:24;16.60;63.60
21734;DHT22;11029;47.820;10.534;2022-10-22T12:19:15;16.40;63.00
21734;DHT22;11029;47.820;10.534;2022-10-22T12:21:44;15.70;64.30
21734;DHT22;11029;47.820;10.534;2022-10-22T12:24:14;15.40;65.80
21734;DHT22;11029;47.820;10.534;2022-10-22T12:26:42;15.50;66.60
21734;DHT22;11029;47.820;10.534;2022-10-22T12:29:12;15.70;67.00
21734;DHT22;11029;47.820;10.534;2022-10-22T12:31:40;15.60;66.30
21734;DHT22;11029;47.820;10.534;2022-10-22T12:34:10;15.70;67.30
21734;DHT22;11029;47.820;10.534;2022-10-22T12:36:38;15.70;66.10
21734;DHT22;11029;47.820;10.534;2022-10-22T12:39:10;15.80;65.70
21734;DHT22;11029;47.820;10.534;2022-10-22T12:41:37;15.80;65.20
21734;DHT22;11029;47.820;10.534;2022-10-22T12:44:05;15.70;65.60
21734;DHT22;11029;47.820;10.534;2022-10-22T12:46:32;15.80;65.70
21734;DHT22;11029;47.820;10.534;2022-10-22T12:49:03;15.70;66.70
21734;DHT22;11029;47.820;10.534;2022-10-22T12:51:30;15.50;67.30
21734;DHT22;11029;47.820;10.534;2022-10-22T12:54:07;15.50;68.30
21734;DHT22;11029;47.820;10.534;2022-10-22T12:56:35;15.50;67.50
21734;DHT22;11029;47.820;10.534;2022-10-22T13:01:38;15.90;67.80
21734;DHT22;11029;47.820;10.534;2022-10-22T13:04:14;16.10;67.80
21734;DHT22;11029;47.820;10.534;2022-10-22T13:06:47;16.50;66.10
21734;DHT22;11029;47.820;10.534;2022-10-22T13:09:22;16.80;63.30
21734;DHT22;11029;47.820;10.534;2022-10-22T13:11:54;17.00;62.80
21734;DHT22;11029;47.820;10.534;2022-10-22T13:19:46;17.60;60.10
21734;DHT22;11029;47.820;10.534;2022-10-22T13:24:49;17.80;59.30
21734;DHT22;11029;47.820;10.534;2022-10-22T13:27:16;17.80;58.50
21734;DHT22;11029;47.820;10.534;2022-10-22T13:29:43;17.60;59.80
21734;DHT22;11029;47.820;10.534;2022-10-22T13:32:47;17.70;58.70
21734;DHT22;11029;47.820;10.534;2022-10-22T13:35:05;17.40;58.90
21734;DHT22;11029;47.820;10.534;2022-10-22T13:37:32;17.40;59.30
21734;DHT22;11029;47.820;10.534;2022-10-22T13:39:59;17.70;57.50
21734;DHT22;11029;47.820;10.534;2022-10-22T13:42:26;18.10;57.30
21734;DHT22;11029;47.820;10.534;2022-10-22T13:44:52;18.60;55.90
21734;DHT22;11029;47.820;10.534;2022-10-22T13:47:26;18.90;56.20
21734;DHT22;11029;47.820;10.534;2022-10-22T13:49:54;19.70;52.90
21734;DHT22;11029;47.820;10.534;2022-10-22T13:52:26;20.10;52.20
21734;DHT22;11029;47.820;10.534;2022-10-22T13:54:54;20.70;50.30
21734;DHT22;11029;47.820;10.534;2022-10-22T13:57:20;20.60;51.20
21734;DHT22;11029;47.820;10.534;2022-10-22T13:59:48;21.20;50.30
21734;DHT22;11029;47.820;10.534;2022-10-22T14:02:15;21.80;49.30
21734;DHT22;11029;47.820;10.534;2022-10-22T14:04:42;22.20;48.30
21734;DHT22;11029;47.820;10.534;2022-10-22T14:07:11;22.40;45.70
21734;DHT22;11029;47.820;10.534;2022-10-22T14:09:38;21.90;47.70
21734;DHT22;11029;47.820;10.534;2022-10-22T14:12:09;22.20;46.90
21734;DHT22;11029;47.820;10.534;2022-10-22T14:14:36;22.40;47.00
21734;DHT22;11029;47.820;10.534;2022-10-22T14:17:04;23.00;45.00
21734;DHT22;11029;47.820;10.534;2022-10-22T14:19:31;23.30;44.00
21734;DHT22;11029;47.820;10.534;2022-10-22T14:21:57;24.10;44.60
21734;DHT22;11029;47.820;10.534;2022-10-22T14:24:24;25.20;41.10
21734;DHT22;11029;47.820;10.534;2022-10-22T14:26:51;25.20;41.90
21734;DHT22;11029;47.820;10.534;2022-10-22T14:29:17;25.10;41.10
21734;DHT22;11029;47.820;10.534;2022-10-22T14:31:44;25.40;41.90
21734;DHT22;11029;47.820;10.534;2022-10-22T14:34:11;25.50;40.30
21734;DHT22;11029;47.820;10.534;2022-10-22T14:36:38;25.80;40.90
21734;DHT22;11029;47.820;10.534;2022-10-22T14:39:05;26.60;39.60
21734;DHT22;11029;47.820;10.534;2022-10-22T14:41:32;27.10;38.20
21734;DHT22;11029;47.820;10.534;2022-10-22T14:43:59;27.70;37.60
21734;DHT22;11029;47.820;10.534;2022-10-22T14:46:25;28.10;37.50
21734;DHT22;11029;47.820;10.534;2022-10-22T14:48:52;27.90;37.50
21734;DHT22;11029;47.820;10.534;2022-10-22T14:51:19;27.20;37.40
21734;DHT22;11029;47.820;10.534;2022-10-22T14:53:46;25.40;40.60
21734;DHT22;11029;47.820;10.534;2022-10-22T14:56:14;24.70;42.00
21734;DHT22;11029;47.820;10.534;2022-10-22T14:58:41;24.80;42.00
21734;DHT22;11029;47.820;10.534;2022-10-22T15:01:08;25.30;40.20
21734;DHT22;11029;47.820;10.534;2022-10-22T15:03:35;25.60;40.20
21734;DHT22;11029;47.820;10.534;2022-10-22T15:06:01;24.90;40.50
21734;DHT22;11029;47.820;10.534;2022-10-22T15:08:28;24.20;42.60
21734;DHT22;11029;47.820;10.534;2022-10-22T15:10:59;25.30;41.30
21734;DHT22;11029;47.820;10.534;2022-10-22T15:13:26;25.70;39.80
21734;DHT22;11029;47.820;10.534;2022-10-22T15:15:54;26.20;39.40
21734;DHT22;11029;47.820;10.534;2022-10-22T15:18:21;26.10;38.90
21734;DHT22;11029;47.820;10.534;2022-10-22T15:20:58;26.10;39.30
21734;DHT22;11029;47.820;10.534;2022-10-22T15:23:25;26.40;38.90
21734;DHT22;11029;47.820;10.534;2022-10-22T15:25:53;26.10;39.60
21734;DHT22;11029;47.820;10.534;2022-10-22T15:28:20;25.40;40.70
21734;DHT22;11029;47.820;10.534;2022-10-22T15:30:58;24.90;41.30
21734;DHT22;11029;47.820;10.534;2022-10-22T15:33:26;24.80;41.80
21734;DHT22;11029;47.820;10.534;2022-10-22T15:35:54;25.00;41.20
21734;DHT22;11029;47.820;10.534;2022-10-22T15:38:22;24.90;41.00
21734;DHT22;11029;47.820;10.534;2022-10-22T15:41:05;23.50;43.60
21734;DHT22;11029;47.820;10.534;2022-10-22T15:43:33;22.10;46.10
21734;DHT22;11029;47.820;10.534;2022-10-22T15:46:15;20.70;49.20
21734;DHT22;11029;47.820;10.534;2022-10-22T15:48:42;19.90;52.60
21734;DHT22;11029;47.820;10.534;2022-10-22T15:51:15;19.10;53.70
21734;DHT22;11029;47.820;10.534;2022-10-22T15:53:42;18.60;55.60
21734;DHT22;11029;47.820;10.534;2022-10-22T15:56:09;18.20;57.40
21734;DHT22;11029;47.820;10.534;2022-10-22T15:58:38;17.80;57.80
21734;DHT22;11029;47.820;10.534;2022-10-22T16:01:10;17.50;58.50
21734;DHT22;11029;47.820;10.534;2022-10-22T16:03:38;17.20;59.60
21734;DHT22;11029;47.820;10.534;2022-10-22T16:06:06;16.90;61.50
21734;DHT22;11029;47.820;10.534;2022-10-22T16:08:33;16.70;62.60
21734;DHT22;11029;47.820;10.534;2022-10-22T16:11:00;16.50;63.30
21734;DHT22;11029;47.820;10.534;2022-10-22T16:13:27;16.40;63.90
21734;DHT22;11029;47.820;10.534;2022-10-22T16:15:54;16.20;64.40
21734;DHT22;11029;47.820;10.534;2022-10-22T16:18:20;16.00;64.80
21734;DHT22;11029;47.820;10.534;2022-10-22T16:20:49;15.90;64.90
21734;DHT22;11029;47.820;10.534;2022-10-22T16:23:15;15.80;64.90
21734;DHT22;11029;47.820;10.534;2022-10-22T16:25:44;15.60;65.50
21734;DHT22;11029;47.820;10.534;2022-10-22T16:28:12;15.40;65.90
21734;DHT22;11029;47.820;10.534;2022-10-22T16:30:39;15.30;65.90
21734;DHT22;11029;47.820;10.534;2022-10-22T16:33:07;15.20;66.40
21734;DHT22;11029;47.820;10.534;2022-10-22T16:35:39;15.00;64.60
21734;DHT22;11029;47.820;10.534;2022-10-22T16:38:07;14.60;65.60
21734;DHT22;11029;47.820;10.534;2022-10-22T16:40:36;14.20;66.90
21734;DHT22;11029;47.820;10.534;2022-10-22T16:43:02;14.10;68.70
21734;DHT22;11029;47.820;10.534;2022-10-22T16:45:29;14.00;67.20
21734;DHT22;11029;47.820;10.534;2022-10-22T16:47:56;13.80;67.50
21734;DHT22;11029;47.820;10.534;2022-10-22T16:50:23;13.60;68.00
21734;DHT22;11029;47.820;10.534;2022-10-22T16:52:49;13.30;70.50